createdAt,value
2022-12-29T00:00:02.434Z,20.45
2022-12-29T00:02:39.608Z,19.95
2022-12-29T00:05:07.923Z,21.70
2022-12-29T00:07:34.688Z,20.67
2022-12-29T00:10:01.399Z,22.02
2022-12-29T00:12:48.044Z,22.25
2022-12-29T00:15:33.585Z,21.52
2022-12-29T00:18:00.984Z,21.83
2022-12-29T00:20:59.891Z,21.00
2022-12-29T00:23:44.895Z,21.95
2022-12-29T00:26:36.872Z,19.75
2022-12-29T00:29:22.633Z,23.38
2022-12-29T00:32:07.868Z,23.73
2022-12-29T00:34:53.445Z,24.88
2022-12-29T00:37:40.257Z,23.48
2022-12-29T00:40:26.468Z,22.23
2022-12-29T00:43:11.698Z,21.95
2022-12-29T00:45:42.618Z,24.83
2022-12-29T00:48:10.901Z,20.23
2022-12-29T00:50:37.832Z,21.75
2022-12-29T00:53:04.560Z,25.33
2022-12-29T00:55:31.275Z,22.25
2022-12-29T00:57:58.239Z,19.90
2022-12-29T01:00:25.007Z,20.92
2022-12-29T01:02:51.747Z,18.67
2022-12-29T01:05:18.443Z,21.65
2022-12-29T01:07:45.861Z,21.42
2022-12-29T01:10:12.578Z,18.73
2022-12-29T01:12:41.981Z,20.83
2022-12-29T01:15:14.703Z,19.33
2022-12-29T01:17:42.053Z,21.42
2022-12-29T01:20:09.666Z,19.88
2022-12-29T01:22:36.445Z,19.48
2022-12-29T01:25:04.904Z,21.92
2022-12-29T01:27:35.023Z,19.92
2022-12-29T01:30:01.841Z,16.88
2022-12-29T01:32:28.495Z,20.45
2022-12-29T01:34:55.249Z,19.42
2022-12-29T01:37:21.964Z,20.08
2022-12-29T01:39:48.668Z,21.48
2022-12-29T01:42:23.201Z,17.38
2022-12-29T01:44:59.162Z,21.25
2022-12-29T01:47:40.774Z,20.77
2022-12-29T01:50:16.925Z,18.73
2022-12-29T01:52:58.853Z,20.90
2022-12-29T01:55:30.122Z,19.80
2022-12-29T01:58:02.005Z,21.00
2022-12-29T02:02:57.537Z,24.25
2022-12-29T02:05:33.196Z,19.00
2022-12-29T02:08:01.447Z,21.48
2022-12-29T02:10:32.000Z,18.65
2022-12-29T02:12:58.711Z,21.48
2022-12-29T02:15:58.000Z,17.63
2022-12-29T02:18:57.003Z,18.63
2022-12-29T02:21:41.749Z,20.35
2022-12-29T02:24:29.115Z,20.02
2022-12-29T02:27:17.748Z,21.08
2022-12-29T02:30:37.465Z,20.50
2022-12-29T02:33:50.313Z,19.75
2022-12-29T02:36:42.244Z,21.48
2022-12-29T02:39:42.338Z,21.52
2022-12-29T02:42:42.930Z,19.70
2022-12-29T02:45:54.174Z,21.17
2022-12-29T02:48:37.296Z,20.27
2022-12-29T02:51:11.106Z,19.00
2022-12-29T02:53:59.056Z,19.38
2022-12-29T02:56:26.861Z,21.52
2022-12-29T02:58:53.761Z,19.70
2022-12-29T03:01:32.842Z,20.27
2022-12-29T03:04:14.898Z,19.73
2022-12-29T03:07:24.884Z,22.63
2022-12-29T03:10:36.819Z,21.70
2022-12-29T03:13:32.573Z,21.85
2022-12-29T03:16:25.614Z,21.52
2022-12-29T03:19:02.296Z,19.52
2022-12-29T03:21:54.081Z,19.23
2022-12-29T03:24:27.733Z,21.45
2022-12-29T03:27:00.730Z,21.88
2022-12-29T03:29:36.887Z,18.40
2022-12-29T03:32:06.017Z,20.50
2022-12-29T03:34:35.342Z,25.13
2022-12-29T03:37:11.175Z,20.92
2022-12-29T03:39:38.623Z,20.35
2022-12-29T03:42:16.500Z,18.08
2022-12-29T03:44:46.901Z,21.73
2022-12-29T03:47:16.171Z,19.90
2022-12-29T03:49:45.463Z,22.25
2022-12-29T03:52:12.570Z,24.02
2022-12-29T03:54:43.543Z,21.90
2022-12-29T03:57:12.277Z,23.15
2022-12-29T03:59:49.868Z,21.98
2022-12-29T04:02:16.767Z,20.02
2022-12-29T04:04:45.333Z,24.55
2022-12-29T04:07:16.286Z,21.95
2022-12-29T04:09:43.338Z,25.08
2022-12-29T04:12:15.412Z,23.48
2022-12-29T04:14:42.268Z,23.20
2022-12-29T04:17:09.104Z,22.38
2022-12-29T04:19:35.871Z,22.83
2022-12-29T04:22:02.541Z,22.40
2022-12-29T04:24:30.458Z,23.75
2022-12-29T04:26:57.474Z,23.00
2022-12-29T04:29:46.527Z,22.08
2022-12-29T04:32:33.395Z,21.25
2022-12-29T04:35:00.106Z,21.15
2022-12-29T04:37:27.520Z,21.63
2022-12-29T04:39:54.729Z,20.35
2022-12-29T04:42:21.668Z,20.50
2022-12-29T04:44:49.519Z,20.88
2022-12-29T04:47:34.460Z,20.95
2022-12-29T04:50:22.572Z,21.50
2022-12-29T04:53:17.543Z,19.48
2022-12-29T04:55:53.075Z,20.95
2022-12-29T04:58:23.122Z,19.45
2022-12-29T05:00:52.818Z,20.65
2022-12-29T05:03:22.711Z,22.58
2022-12-29T05:05:49.886Z,20.70
2022-12-29T05:08:16.776Z,20.73
2022-12-29T05:10:46.647Z,21.42
2022-12-29T05:13:13.968Z,19.58
2022-12-29T05:15:42.395Z,23.90
2022-12-29T05:18:09.227Z,23.38
2022-12-29T05:20:35.918Z,23.95
2022-12-29T05:23:03.238Z,20.48
2022-12-29T05:25:30.105Z,23.52
2022-12-29T05:28:08.643Z,22.88
2022-12-29T05:30:42.966Z,23.83
2022-12-29T05:33:12.455Z,21.48
2022-12-29T05:35:40.049Z,23.83
2022-12-29T05:38:07.317Z,23.73
2022-12-29T05:40:34.375Z,19.73
2022-12-29T05:43:05.609Z,20.75
2022-12-29T05:45:53.645Z,20.60
2022-12-29T05:48:38.651Z,21.42
2022-12-29T05:51:14.811Z,20.00
2022-12-29T05:53:53.421Z,23.25
2022-12-29T05:56:20.184Z,20.27
2022-12-29T05:58:53.689Z,21.30
2022-12-29T06:01:22.125Z,24.10
2022-12-29T06:03:49.137Z,21.70
2022-12-29T06:06:18.868Z,21.13
2022-12-29T06:08:46.631Z,22.83
2022-12-29T06:11:14.463Z,22.42
2022-12-29T06:13:48.366Z,22.35
2022-12-29T06:16:16.703Z,22.20
2022-12-29T06:18:45.573Z,20.80
2022-12-29T06:21:13.071Z,21.27
2022-12-29T06:23:40.224Z,26.35
2022-12-29T06:26:06.892Z,25.40
2022-12-29T06:28:33.639Z,23.00
2022-12-29T06:31:03.057Z,22.17
2022-12-29T06:33:30.633Z,22.48
2022-12-29T06:35:57.705Z,23.52
2022-12-29T06:38:24.422Z,22.15
2022-12-29T06:40:51.164Z,25.50
2022-12-29T06:43:20.881Z,21.88
2022-12-29T06:45:56.252Z,22.13
2022-12-29T06:48:22.964Z,23.67
2022-12-29T06:50:49.699Z,21.10
2022-12-29T06:53:16.366Z,23.00
2022-12-29T06:55:43.372Z,22.67
2022-12-29T06:58:10.397Z,22.95
2022-12-29T07:00:37.064Z,23.92
2022-12-29T07:03:04.036Z,21.60
2022-12-29T07:05:32.555Z,20.70
2022-12-29T07:07:59.939Z,25.67
2022-12-29T07:10:27.204Z,22.73
2022-12-29T07:12:53.933Z,23.67
2022-12-29T07:15:20.709Z,19.55
2022-12-29T07:17:47.460Z,25.60
2022-12-29T07:20:14.097Z,22.33
2022-12-29T07:22:41.058Z,28.52
2022-12-29T07:25:08.518Z,27.50
2022-12-29T07:27:35.624Z,27.55
2022-12-29T07:30:02.312Z,26.30
2022-12-29T07:32:29.183Z,29.17
2022-12-29T07:34:55.899Z,28.80
2022-12-29T07:37:22.550Z,28.73
2022-12-29T07:39:49.215Z,28.67
2022-12-29T07:42:15.917Z,28.42
2022-12-29T07:44:44.574Z,28.05
2022-12-29T07:47:37.565Z,30.05
2022-12-29T07:50:05.864Z,27.45
2022-12-29T07:52:32.732Z,27.45
2022-12-29T07:54:59.887Z,28.38
2022-12-29T07:57:31.513Z,29.15
2022-12-29T07:59:59.529Z,30.70
2022-12-29T08:02:27.647Z,27.52
2022-12-29T08:04:54.738Z,28.77
2022-12-29T08:07:21.967Z,25.67
2022-12-29T08:09:48.653Z,27.38
2022-12-29T08:12:15.848Z,26.85
2022-12-29T08:14:42.513Z,24.90
2022-12-29T08:17:09.282Z,28.05
2022-12-29T08:19:35.965Z,28.65
2022-12-29T08:22:03.307Z,27.67
2022-12-29T08:24:30.019Z,26.58
2022-12-29T08:26:57.360Z,25.95
2022-12-29T08:29:24.217Z,25.75
2022-12-29T08:31:50.925Z,27.35
2022-12-29T08:34:17.595Z,25.45
2022-12-29T08:36:44.229Z,22.98
2022-12-29T08:39:10.932Z,25.27
2022-12-29T08:41:40.879Z,23.92
2022-12-29T08:44:07.515Z,25.02
2022-12-29T08:46:34.167Z,24.70
2022-12-29T08:49:08.404Z,22.55
2022-12-29T08:54:01.843Z,24.42
2022-12-29T08:56:29.098Z,23.48
2022-12-29T08:58:57.844Z,26.27
2022-12-29T09:01:25.665Z,22.27
2022-12-29T09:04:14.375Z,25.83
2022-12-29T09:06:42.381Z,25.63
2022-12-29T09:09:09.476Z,26.58
2022-12-29T09:11:36.316Z,24.40
2022-12-29T09:14:03.288Z,26.02
2022-12-29T09:16:30.113Z,24.50
2022-12-29T09:18:56.812Z,26.40
2022-12-29T09:21:23.540Z,24.55
2022-12-29T09:23:50.234Z,26.80
2022-12-29T09:26:16.945Z,26.00
2022-12-29T09:28:45.220Z,24.65
2022-12-29T09:31:12.204Z,26.60
2022-12-29T09:33:39.085Z,21.67
2022-12-29T09:36:06.224Z,25.88
2022-12-29T09:38:32.965Z,26.00
2022-12-29T09:41:15.458Z,26.88
2022-12-29T09:44:07.999Z,30.67
2022-12-29T09:47:01.804Z,23.73
2022-12-29T09:50:26.572Z,25.73
2022-12-29T09:53:06.065Z,24.02
2022-12-29T09:56:01.668Z,27.45
2022-12-29T09:58:46.494Z,24.95
2022-12-29T10:01:38.354Z,27.00
2022-12-29T10:04:06.259Z,25.40
2022-12-29T10:10:39.261Z,26.10
2022-12-29T10:13:29.974Z,29.08
2022-12-29T10:16:24.022Z,24.00
2022-12-29T10:19:08.924Z,26.48
2022-12-29T10:21:59.911Z,24.92
2022-12-29T10:24:30.433Z,21.10
2022-12-29T10:26:59.813Z,29.00
2022-12-29T10:29:41.487Z,24.58
2022-12-29T10:32:34.006Z,28.52
2022-12-29T10:35:15.148Z,28.97
2022-12-29T10:38:12.478Z,26.42
2022-12-29T10:40:52.312Z,28.20
2022-12-29T10:43:27.056Z,28.90
2022-12-29T10:46:06.345Z,25.08
2022-12-29T10:48:35.836Z,25.48
2022-12-29T10:51:06.872Z,27.52
2022-12-29T10:53:42.843Z,26.67
2022-12-29T10:56:31.026Z,28.60
2022-12-29T10:59:03.197Z,32.22
2022-12-29T11:01:41.141Z,26.17
2022-12-29T11:04:36.096Z,25.67
2022-12-29T11:07:04.701Z,27.65
2022-12-29T11:09:42.427Z,24.35
2022-12-29T11:12:29.769Z,29.17
2022-12-29T11:15:08.738Z,23.83
2022-12-29T11:17:51.492Z,29.02
2022-12-29T11:20:36.064Z,27.43
2022-12-29T11:23:05.670Z,24.77
2022-12-29T11:25:33.129Z,22.23
2022-12-29T11:28:16.428Z,24.98
2022-12-29T11:30:44.059Z,24.70
2022-12-29T11:33:11.124Z,27.17
2022-12-29T11:35:43.494Z,24.52
2022-12-29T11:38:27.273Z,27.02
2022-12-29T11:40:54.257Z,26.27
2022-12-29T11:43:42.073Z,29.42
2022-12-29T11:46:26.829Z,23.90
2022-12-29T11:48:53.858Z,26.73
2022-12-29T11:51:28.345Z,30.65
2022-12-29T11:53:59.712Z,26.80
2022-12-29T11:56:41.290Z,25.95
2022-12-29T11:59:30.731Z,24.88
2022-12-29T12:01:59.885Z,29.02
2022-12-29T12:04:32.225Z,27.20
2022-12-29T12:07:40.175Z,25.83
2022-12-29T12:10:14.055Z,27.13
2022-12-29T12:12:52.826Z,23.02
2022-12-29T12:16:08.888Z,24.73
2022-12-29T12:18:49.232Z,24.25
2022-12-29T12:21:27.401Z,25.50
2022-12-29T12:24:09.151Z,23.15
2022-12-29T12:26:39.243Z,26.00
2022-12-29T12:29:33.696Z,24.77
2022-12-29T12:32:28.412Z,27.38
2022-12-29T12:34:55.102Z,25.38
2022-12-29T12:52:07.360Z,27.10
2022-12-29T12:55:03.109Z,29.23
2022-12-29T12:58:10.646Z,25.17
2022-12-29T13:00:53.129Z,24.83
2022-12-29T13:03:50.861Z,24.50
2022-12-29T13:06:43.744Z,26.38
2022-12-29T13:09:32.326Z,25.73
2022-12-29T13:12:41.360Z,27.10
2022-12-29T13:15:31.025Z,25.73
2022-12-29T13:18:07.411Z,27.13
2022-12-29T13:20:56.748Z,25.30
2022-12-29T13:23:32.338Z,25.77
2022-12-29T13:26:16.272Z,23.67
2022-12-29T13:29:20.062Z,25.27
2022-12-29T13:32:31.117Z,25.80
2022-12-29T13:35:33.347Z,24.50
2022-12-29T13:38:21.801Z,27.63
2022-12-29T13:40:56.317Z,29.05
2022-12-29T13:43:24.705Z,26.92
2022-12-29T13:46:02.466Z,24.67
2022-12-29T13:48:54.979Z,26.45
2022-12-29T13:51:27.719Z,26.02
2022-12-29T13:54:13.093Z,26.35
2022-12-29T13:57:05.037Z,26.00
2022-12-29T13:59:58.000Z,27.48
2022-12-29T14:02:34.471Z,27.17
2022-12-29T14:05:07.014Z,26.20
2022-12-29T14:07:39.319Z,25.42
2022-12-29T14:10:07.368Z,26.38
2022-12-29T14:12:39.148Z,24.40
2022-12-29T14:15:11.908Z,23.40
2022-12-29T14:17:45.289Z,25.25
2022-12-29T14:20:24.090Z,26.73
2022-12-29T14:23:17.510Z,26.25
2022-12-29T14:26:05.979Z,25.00
2022-12-29T14:28:45.161Z,24.27
2022-12-29T14:31:14.984Z,25.38
2022-12-29T14:34:11.630Z,26.80
2022-12-29T14:36:41.055Z,24.33
2022-12-29T14:39:36.746Z,26.00
2022-12-29T14:42:18.476Z,24.52
2022-12-29T14:45:01.985Z,24.27
2022-12-29T14:47:37.292Z,24.55
2022-12-29T14:50:26.196Z,23.40
2022-12-29T14:53:04.361Z,23.80
2022-12-29T14:55:48.362Z,25.63
2022-12-29T14:58:32.709Z,27.67
2022-12-29T15:01:00.810Z,24.80
2022-12-29T15:03:33.743Z,25.52
2022-12-29T15:06:14.223Z,26.63
2022-12-29T15:08:51.155Z,23.95
2022-12-29T15:11:26.100Z,27.23
2022-12-29T15:16:36.744Z,25.80
2022-12-29T15:19:06.063Z,24.55
2022-12-29T15:21:37.470Z,27.45
2022-12-29T15:24:05.381Z,27.83
2022-12-29T15:26:40.714Z,23.35
2022-12-29T15:29:46.619Z,26.23
2022-12-29T15:32:16.329Z,25.73
2022-12-29T15:34:50.574Z,27.83
2022-12-29T15:37:27.459Z,26.73
2022-12-29T15:39:56.886Z,24.67
2022-12-29T15:42:51.544Z,24.83
2022-12-29T15:45:18.350Z,24.10
2022-12-29T15:47:49.657Z,25.77
2022-12-29T15:50:32.310Z,21.85
2022-12-29T15:53:00.623Z,27.92
2022-12-29T15:55:40.249Z,24.48
2022-12-29T15:58:24.294Z,22.33
2022-12-29T16:00:59.138Z,22.13
2022-12-29T16:06:07.810Z,23.00
2022-12-29T16:08:41.109Z,23.20
2022-12-29T16:11:24.180Z,27.75
2022-12-29T16:13:53.840Z,24.27
2022-12-29T16:16:38.962Z,23.63
2022-12-29T16:19:15.817Z,28.17
2022-12-29T16:21:44.154Z,27.38
2022-12-29T16:24:27.608Z,29.45
2022-12-29T16:27:07.686Z,28.98
2022-12-29T16:29:35.759Z,26.63
2022-12-29T16:32:04.216Z,28.75
2022-12-29T16:34:38.692Z,25.60
2022-12-29T16:37:37.664Z,25.00
2022-12-29T16:40:23.119Z,27.70
2022-12-29T16:42:52.425Z,26.00
2022-12-29T16:45:21.496Z,27.85
2022-12-29T16:47:54.985Z,26.58
2022-12-29T16:50:28.202Z,29.65
2022-12-29T16:52:55.869Z,27.45
2022-12-29T16:55:23.095Z,26.48
2022-12-29T16:57:54.496Z,27.02
2022-12-29T17:00:25.713Z,28.17
2022-12-29T17:02:57.523Z,25.83
2022-12-29T17:05:24.601Z,26.95
2022-12-29T17:07:55.845Z,26.52
2022-12-29T17:10:42.551Z,27.08
2022-12-29T17:13:09.579Z,27.02
2022-12-29T17:15:36.551Z,27.33
2022-12-29T17:18:06.300Z,29.17
2022-12-29T17:20:35.405Z,27.75
2022-12-29T17:23:02.603Z,28.23
2022-12-29T17:25:34.411Z,30.35
2022-12-29T17:28:04.416Z,25.98
2022-12-29T17:30:34.685Z,25.95
2022-12-29T17:33:09.638Z,30.05
2022-12-29T17:35:37.647Z,25.05
2022-12-29T17:38:23.991Z,28.58
2022-12-29T17:40:50.926Z,26.42
2022-12-29T17:43:18.333Z,25.92
2022-12-29T17:45:51.034Z,25.67
2022-12-29T17:48:18.917Z,28.77
2022-12-29T17:50:49.400Z,26.92
2022-12-29T17:53:21.893Z,26.20
2022-12-29T17:55:48.840Z,28.42
2022-12-29T17:58:21.344Z,29.20
2022-12-29T18:00:51.526Z,27.40
2022-12-29T18:03:23.640Z,25.20
2022-12-29T18:05:50.987Z,27.10
2022-12-29T18:08:17.775Z,29.40
2022-12-29T18:10:44.921Z,26.33
2022-12-29T18:13:22.299Z,28.00
2022-12-29T18:15:49.219Z,23.85
2022-12-29T18:18:20.340Z,27.45
2022-12-29T18:20:50.068Z,28.23
2022-12-29T18:23:32.153Z,28.70
2022-12-29T18:26:08.082Z,28.85
2022-12-29T18:28:34.761Z,29.50
2022-12-29T18:31:02.038Z,28.02
2022-12-29T18:33:29.933Z,34.45
2022-12-29T18:36:03.668Z,30.27
2022-12-29T18:38:31.006Z,29.73
2022-12-29T18:40:59.378Z,27.10
2022-12-29T18:43:26.432Z,30.15
2022-12-29T18:45:53.244Z,30.80
2022-12-29T18:48:20.767Z,28.48
2022-12-29T18:50:53.170Z,26.92
2022-12-29T18:53:23.760Z,27.45
2022-12-29T18:55:52.231Z,32.90
2022-12-29T18:58:19.528Z,29.48
2022-12-29T19:00:47.294Z,28.10
2022-12-29T19:03:17.599Z,29.52
2022-12-29T19:05:47.185Z,29.25
2022-12-29T19:08:14.183Z,29.83
2022-12-29T19:10:42.167Z,32.20
2022-12-29T19:13:17.553Z,29.95
2022-12-29T19:15:46.506Z,29.17
2022-12-29T19:21:11.727Z,27.38
2022-12-29T19:23:38.466Z,28.15
2022-12-29T19:26:05.377Z,27.02
2022-12-29T19:28:32.120Z,28.40
2022-12-29T19:31:02.148Z,29.50
2022-12-29T19:33:29.529Z,30.17
2022-12-29T19:36:01.752Z,27.20
2022-12-29T19:38:28.858Z,31.25
2022-12-29T19:40:55.624Z,30.02
2022-12-29T19:43:22.326Z,30.35
2022-12-29T19:45:49.061Z,28.05
2022-12-29T19:48:19.446Z,30.48
2022-12-29T19:50:46.360Z,30.58
2022-12-29T19:53:14.615Z,28.80
2022-12-29T19:55:45.976Z,27.85
2022-12-29T19:58:13.597Z,31.33
2022-12-29T20:00:42.361Z,29.67
2022-12-29T20:03:09.491Z,31.85
2022-12-29T20:05:37.145Z,27.65
2022-12-29T20:08:03.915Z,30.92
2022-12-29T20:10:30.954Z,30.35
2022-12-29T20:12:57.838Z,27.35
2022-12-29T20:15:24.575Z,31.45
2022-12-29T20:20:37.899Z,30.65
2022-12-29T20:23:04.578Z,28.63
2022-12-29T20:25:47.483Z,31.98
2022-12-29T20:28:15.934Z,31.42
2022-12-29T20:30:43.279Z,28.58
2022-12-29T20:33:10.349Z,33.58
2022-12-29T20:35:37.727Z,27.77
2022-12-29T20:38:05.295Z,31.88
2022-12-29T20:40:32.106Z,31.08
2022-12-29T20:42:58.795Z,29.92
2022-12-29T20:45:25.779Z,29.38
2022-12-29T20:47:52.493Z,31.75
2022-12-29T20:50:19.233Z,30.40
2022-12-29T20:52:47.058Z,31.83
2022-12-29T20:55:14.449Z,30.73
2022-12-29T21:00:32.769Z,26.17
2022-12-29T21:03:00.868Z,28.35
2022-12-29T21:05:28.926Z,25.08
2022-12-29T21:07:55.959Z,23.80
2022-12-29T21:10:23.260Z,25.60
2022-12-29T21:12:50.079Z,22.50
2022-12-29T21:15:16.916Z,28.17
2022-12-29T21:17:44.713Z,24.95
2022-12-29T21:20:20.539Z,26.52
2022-12-29T21:22:48.095Z,26.88
2022-12-29T21:25:15.149Z,24.88
2022-12-29T21:27:45.591Z,25.98
2022-12-29T21:30:13.268Z,25.67
2022-12-29T21:32:41.348Z,24.42
2022-12-29T21:35:09.898Z,26.70
2022-12-29T21:37:36.941Z,23.73
2022-12-29T21:40:04.592Z,26.27
2022-12-29T21:42:31.645Z,24.00
2022-12-29T21:45:20.835Z,24.05
2022-12-29T21:48:07.488Z,25.17
2022-12-29T21:50:59.226Z,24.38
2022-12-29T21:53:37.706Z,28.33
2022-12-29T21:56:11.670Z,25.10
2022-12-29T21:58:59.414Z,25.58
2022-12-29T22:01:46.808Z,26.42
2022-12-29T22:04:35.295Z,25.45
2022-12-29T22:07:22.355Z,27.67
2022-12-29T22:10:07.942Z,24.00
2022-12-29T22:12:54.379Z,27.55
2022-12-29T22:15:21.475Z,25.63
2022-12-29T22:17:50.969Z,24.05
2022-12-29T22:20:19.716Z,26.42
2022-12-29T22:22:46.698Z,24.70
2022-12-29T22:25:14.209Z,25.98
2022-12-29T22:27:40.995Z,23.85
2022-12-29T22:30:08.777Z,25.48
2022-12-29T22:32:35.732Z,25.95
2022-12-29T22:35:07.739Z,23.05
2022-12-29T22:37:37.356Z,24.60
2022-12-29T22:40:06.662Z,25.65
2022-12-29T22:42:33.353Z,24.27
2022-12-29T22:45:00.030Z,27.33
2022-12-29T22:47:26.705Z,24.75
2022-12-29T22:49:53.387Z,27.42
2022-12-29T22:52:20.176Z,27.23
2022-12-29T22:54:46.816Z,26.88
2022-12-29T22:57:13.615Z,26.00
2022-12-29T22:59:40.312Z,26.02
2022-12-29T23:02:07.176Z,24.52
2022-12-29T23:05:02.296Z,28.27
2022-12-29T23:07:21.379Z,26.30
2022-12-29T23:09:48.050Z,25.55
2022-12-29T23:12:14.696Z,25.83
2022-12-29T23:14:41.380Z,25.08
2022-12-29T23:17:08.102Z,28.20
2022-12-29T23:19:34.815Z,23.38
2022-12-29T23:22:01.597Z,26.00
2022-12-29T23:24:28.357Z,25.27
2022-12-29T23:26:55.060Z,23.05
2022-12-29T23:29:21.790Z,24.70
2022-12-29T23:31:49.014Z,22.48
2022-12-29T23:34:17.020Z,26.88
2022-12-29T23:36:43.914Z,28.02
2022-12-29T23:39:23.189Z,27.50
2022-12-29T23:41:50.384Z,22.92
2022-12-29T23:44:17.112Z,25.73
2022-12-29T23:46:44.054Z,25.67
2022-12-29T23:49:11.078Z,26.45
2022-12-29T23:51:37.844Z,28.30
2022-12-29T23:54:05.212Z,26.55
2022-12-29T23:56:32.386Z,30.20
2022-12-29T23:58:59.071Z,27.65
